Lake Fork, Illinois
Current Conditions -  °F | °C
As of 11:35 AM on Wednesday 26 Nov 2014 (Local Time) from KAAA Reporting Station
Overcast Overcast  
Wind Chill: 23°   Ceiling: 900
Heat Index: 32°   Visibility: 7mi
Dew Point: 29°   Wind: 13mph
Humidity: 88%   Direction: 110°ESE
Pressure: 30.08"   Gusts: NA
Location:  39.97°N, 89.35°W
Report Text: KAAA 261735Z AUTO 11011KT 7SM BKN009 OVC100 00/M02 A3008 RMK AO2 T00001018
Loading
Personal Weather Stations






























Interactive Weather Map New forecast layout! Learn more

10-Day Weather Forecast

Advertisements
Track Severe Weather on mobile